sensor_id;sensor_type;location;lat;lon;timestamp;P1;durP1;ratioP1;P2;durP2;ratioP2
73729;SDS011;62036;48.128;16.458;2023-05-07T00:00:23;1.40;;;1.10;;
73729;SDS011;62036;48.128;16.458;2023-05-07T00:02:49;1.10;;;0.70;;
73729;SDS011;62036;48.128;16.458;2023-05-07T00:05:15;1.27;;;0.80;;
73729;SDS011;62036;48.128;16.458;2023-05-07T00:07:41;1.23;;;0.70;;
73729;SDS011;62036;48.128;16.458;2023-05-07T00:10:07;1.60;;;0.88;;
73729;SDS011;62036;48.128;16.458;2023-05-07T00:12:33;0.82;;;0.70;;
73729;SDS011;62036;48.128;16.458;2023-05-07T00:15:01;0.77;;;0.77;;
73729;SDS011;62036;48.128;16.458;2023-05-07T00:17:27;1.77;;;1.20;;
73729;SDS011;62036;48.128;16.458;2023-05-07T00:19:53;2.03;;;1.00;;
73729;SDS011;62036;48.128;16.458;2023-05-07T00:22:19;1.48;;;1.23;;
73729;SDS011;62036;48.128;16.458;2023-05-07T00:24:46;2.50;;;1.42;;
73729;SDS011;62036;48.128;16.458;2023-05-07T00:27:12;3.88;;;2.00;;
73729;SDS011;62036;48.128;16.458;2023-05-07T00:29:38;3.38;;;1.98;;
73729;SDS011;62036;48.128;16.458;2023-05-07T00:32:04;1.63;;;1.42;;
73729;SDS011;62036;48.128;16.458;2023-05-07T00:34:30;2.60;;;1.40;;
73729;SDS011;62036;48.128;16.458;2023-05-07T00:36:56;2.03;;;1.77;;
73729;SDS011;62036;48.128;16.458;2023-05-07T00:39:22;1.58;;;1.00;;
73729;SDS011;62036;48.128;16.458;2023-05-07T00:41:48;1.00;;;0.70;;
73729;SDS011;62036;48.128;16.458;2023-05-07T00:44:16;1.27;;;1.13;;
73729;SDS011;62036;48.128;16.458;2023-05-07T00:46:43;2.80;;;1.58;;
73729;SDS011;62036;48.128;16.458;2023-05-07T00:49:09;2.13;;;1.60;;
73729;SDS011;62036;48.128;16.458;2023-05-07T00:51:36;2.40;;;1.38;;
73729;SDS011;62036;48.128;16.458;2023-05-07T00:54:02;2.60;;;1.25;;
73729;SDS011;62036;48.128;16.458;2023-05-07T00:56:28;1.45;;;1.35;;
73729;SDS011;62036;48.128;16.458;2023-05-07T00:58:54;2.45;;;1.15;;
73729;SDS011;62036;48.128;16.458;2023-05-07T01:01:21;1.75;;;1.40;;
73729;SDS011;62036;48.128;16.458;2023-05-07T01:03:47;1.80;;;1.40;;
73729;SDS011;62036;48.128;16.458;2023-05-07T01:06:13;1.63;;;1.27;;
73729;SDS011;62036;48.128;16.458;2023-05-07T01:08:41;2.47;;;1.50;;
73729;SDS011;62036;48.128;16.458;2023-05-07T01:11:07;2.35;;;1.73;;
73729;SDS011;62036;48.128;16.458;2023-05-07T01:13:34;3.35;;;1.30;;
73729;SDS011;62036;48.128;16.458;2023-05-07T01:16:01;1.42;;;1.20;;
73729;SDS011;62036;48.128;16.458;2023-05-07T01:18:27;3.95;;;1.50;;
73729;SDS011;62036;48.128;16.458;2023-05-07T01:20:55;2.20;;;1.50;;
73729;SDS011;62036;48.128;16.458;2023-05-07T01:23:23;1.80;;;1.60;;
73729;SDS011;62036;48.128;16.458;2023-05-07T01:25:53;1.48;;;1.10;;
73729;SDS011;62036;48.128;16.458;2023-05-07T01:28:19;1.60;;;1.10;;
73729;SDS011;62036;48.128;16.458;2023-05-07T01:30:56;1.83;;;1.27;;
73729;SDS011;62036;48.128;16.458;2023-05-07T01:33:26;1.63;;;0.93;;
73729;SDS011;62036;48.128;16.458;2023-05-07T01:35:54;1.50;;;1.30;;
73729;SDS011;62036;48.128;16.458;2023-05-07T01:38:21;2.17;;;1.38;;
73729;SDS011;62036;48.128;16.458;2023-05-07T01:40:48;1.42;;;1.33;;
73729;SDS011;62036;48.128;16.458;2023-05-07T01:43:14;2.22;;;1.42;;
73729;SDS011;62036;48.128;16.458;2023-05-07T01:45:40;1.75;;;1.30;;
73729;SDS011;62036;48.128;16.458;2023-05-07T01:48:07;1.98;;;1.50;;
73729;SDS011;62036;48.128;16.458;2023-05-07T01:50:34;1.23;;;0.90;;
73729;SDS011;62036;48.128;16.458;2023-05-07T01:53:01;2.28;;;1.55;;
73729;SDS011;62036;48.128;16.458;2023-05-07T01:55:27;1.83;;;1.55;;
73729;SDS011;62036;48.128;16.458;2023-05-07T01:57:53;1.55;;;1.17;;
73729;SDS011;62036;48.128;16.458;2023-05-07T02:00:19;0.82;;;0.82;;
73729;SDS011;62036;48.128;16.458;2023-05-07T02:02:46;0.70;;;0.70;;
73729;SDS011;62036;48.128;16.458;2023-05-07T02:05:12;1.05;;;0.95;;
73729;SDS011;62036;48.128;16.458;2023-05-07T02:07:38;1.10;;;0.70;;
73729;SDS011;62036;48.128;16.458;2023-05-07T02:10:04;0.85;;;0.73;;
73729;SDS011;62036;48.128;16.458;2023-05-07T02:12:31;1.25;;;0.90;;
73729;SDS011;62036;48.128;16.458;2023-05-07T02:14:57;1.33;;;0.95;;
73729;SDS011;62036;48.128;16.458;2023-05-07T02:17:23;2.85;;;1.30;;
73729;SDS011;62036;48.128;16.458;2023-05-07T02:19:49;1.83;;;1.13;;
73729;SDS011;62036;48.128;16.458;2023-05-07T02:22:15;1.35;;;0.90;;
73729;SDS011;62036;48.128;16.458;2023-05-07T02:24:41;0.88;;;0.77;;
73729;SDS011;62036;48.128;16.458;2023-05-07T02:27:07;1.40;;;0.90;;
73729;SDS011;62036;48.128;16.458;2023-05-07T02:29:33;0.80;;;0.60;;
73729;SDS011;62036;48.128;16.458;2023-05-07T02:31:59;0.57;;;0.57;;
73729;SDS011;62036;48.128;16.458;2023-05-07T02:34:26;0.60;;;0.60;;
73729;SDS011;62036;48.128;16.458;2023-05-07T02:36:52;0.80;;;0.45;;
73729;SDS011;62036;48.128;16.458;2023-05-07T02:39:18;1.05;;;0.52;;
73729;SDS011;62036;48.128;16.458;2023-05-07T02:41:44;0.55;;;0.40;;
73729;SDS011;62036;48.128;16.458;2023-05-07T02:44:10;1.05;;;0.70;;
73729;SDS011;62036;48.128;16.458;2023-05-07T02:46:36;1.92;;;0.70;;
73729;SDS011;62036;48.128;16.458;2023-05-07T02:49:02;1.35;;;1.23;;
73729;SDS011;62036;48.128;16.458;2023-05-07T02:51:29;1.48;;;1.17;;
73729;SDS011;62036;48.128;16.458;2023-05-07T02:53:55;1.20;;;0.90;;
73729;SDS011;62036;48.128;16.458;2023-05-07T02:56:21;1.25;;;0.90;;
73729;SDS011;62036;48.128;16.458;2023-05-07T02:58:47;1.17;;;0.85;;
73729;SDS011;62036;48.128;16.458;2023-05-07T03:01:13;1.80;;;0.98;;
73729;SDS011;62036;48.128;16.458;2023-05-07T03:03:39;1.15;;;1.05;;
73729;SDS011;62036;48.128;16.458;2023-05-07T03:06:06;1.05;;;0.80;;
73729;SDS011;62036;48.128;16.458;2023-05-07T03:08:34;1.30;;;0.75;;
73729;SDS011;62036;48.128;16.458;2023-05-07T03:11:01;1.33;;;0.98;;
73729;SDS011;62036;48.128;16.458;2023-05-07T03:13:27;1.00;;;0.90;;
73729;SDS011;62036;48.128;16.458;2023-05-07T03:15:53;1.27;;;1.17;;
73729;SDS011;62036;48.128;16.458;2023-05-07T03:18:19;1.10;;;0.85;;
73729;SDS011;62036;48.128;16.458;2023-05-07T03:20:45;1.33;;;1.00;;
73729;SDS011;62036;48.128;16.458;2023-05-07T03:23:11;1.33;;;0.90;;
73729;SDS011;62036;48.128;16.458;2023-05-07T03:25:37;0.70;;;0.60;;
73729;SDS011;62036;48.128;16.458;2023-05-07T03:28:03;0.93;;;0.82;;
73729;SDS011;62036;48.128;16.458;2023-05-07T03:30:33;0.85;;;0.80;;
73729;SDS011;62036;48.128;16.458;2023-05-07T03:32:59;0.80;;;0.65;;
73729;SDS011;62036;48.128;16.458;2023-05-07T03:35:25;1.13;;;0.93;;
73729;SDS011;62036;48.128;16.458;2023-05-07T03:37:51;1.45;;;1.25;;
73729;SDS011;62036;48.128;16.458;2023-05-07T03:40:17;1.25;;;0.55;;
73729;SDS011;62036;48.128;16.458;2023-05-07T03:42:43;3.25;;;0.98;;
73729;SDS011;62036;48.128;16.458;2023-05-07T03:45:09;1.23;;;0.90;;
73729;SDS011;62036;48.128;16.458;2023-05-07T03:47:35;1.90;;;0.75;;
73729;SDS011;62036;48.128;16.458;2023-05-07T03:50:01;2.53;;;1.02;;
73729;SDS011;62036;48.128;16.458;2023-05-07T03:52:27;2.33;;;1.23;;
73729;SDS011;62036;48.128;16.458;2023-05-07T03:54:53;2.15;;;0.95;;
73729;SDS011;62036;48.128;16.458;2023-05-07T03:57:19;2.35;;;1.10;;
73729;SDS011;62036;48.128;16.458;2023-05-07T03:59:45;1.33;;;0.90;;
73729;SDS011;62036;48.128;16.458;2023-05-07T04:02:11;1.13;;;0.85;;
73729;SDS011;62036;48.128;16.458;2023-05-07T04:04:37;1.40;;;1.17;;
73729;SDS011;62036;48.128;16.458;2023-05-07T04:07:03;1.65;;;1.45;;
73729;SDS011;62036;48.128;16.458;2023-05-07T04:09:29;1.30;;;1.10;;
73729;SDS011;62036;48.128;16.458;2023-05-07T04:11:55;2.00;;;0.85;;
73729;SDS011;62036;48.128;16.458;2023-05-07T04:14:21;1.77;;;1.13;;
73729;SDS011;62036;48.128;16.458;2023-05-07T04:16:47;1.15;;;0.88;;
73729;SDS011;62036;48.128;16.458;2023-05-07T04:19:13;1.15;;;0.82;;
73729;SDS011;62036;48.128;16.458;2023-05-07T04:21:39;1.63;;;1.08;;
73729;SDS011;62036;48.128;16.458;2023-05-07T04:24:06;2.22;;;1.15;;
73729;SDS011;62036;48.128;16.458;2023-05-07T04:26:32;1.98;;;1.23;;
73729;SDS011;62036;48.128;16.458;2023-05-07T04:28:58;2.60;;;1.30;;
73729;SDS011;62036;48.128;16.458;2023-05-07T04:31:24;1.52;;;1.10;;
73729;SDS011;62036;48.128;16.458;2023-05-07T04:33:51;3.60;;;1.50;;
73729;SDS011;62036;48.128;16.458;2023-05-07T04:36:17;2.50;;;1.38;;
73729;SDS011;62036;48.128;16.458;2023-05-07T04:38:43;2.45;;;1.60;;
73729;SDS011;62036;48.128;16.458;2023-05-07T04:41:12;1.77;;;1.30;;
73729;SDS011;62036;48.128;16.458;2023-05-07T04:43:38;1.60;;;1.23;;
73729;SDS011;62036;48.128;16.458;2023-05-07T04:46:05;1.92;;;1.20;;
73729;SDS011;62036;48.128;16.458;2023-05-07T04:48:31;1.70;;;1.27;;
73729;SDS011;62036;48.128;16.458;2023-05-07T04:50:57;4.03;;;1.55;;
73729;SDS011;62036;48.128;16.458;2023-05-07T04:53:23;4.38;;;2.40;;
73729;SDS011;62036;48.128;16.458;2023-05-07T04:55:49;2.70;;;1.83;;
73729;SDS011;62036;48.128;16.458;2023-05-07T04:58:20;2.65;;;2.28;;
73729;SDS011;62036;48.128;16.458;2023-05-07T05:00:46;3.42;;;1.98;;
73729;SDS011;62036;48.128;16.458;2023-05-07T05:03:12;5.82;;;2.53;;
73729;SDS011;62036;48.128;16.458;2023-05-07T05:05:38;4.53;;;2.80;;
73729;SDS011;62036;48.128;16.458;2023-05-07T05:08:04;4.18;;;2.80;;
73729;SDS011;62036;48.128;16.458;2023-05-07T05:10:30;4.55;;;3.20;;
73729;SDS011;62036;48.128;16.458;2023-05-07T05:12:56;8.77;;;3.88;;
73729;SDS011;62036;48.128;16.458;2023-05-07T05:15:22;8.80;;;5.75;;
73729;SDS011;62036;48.128;16.458;2023-05-07T05:17:49;12.63;;;5.70;;
73729;SDS011;62036;48.128;16.458;2023-05-07T05:20:15;10.07;;;5.55;;
73729;SDS011;62036;48.128;16.458;2023-05-07T05:22:41;11.32;;;6.47;;
73729;SDS011;62036;48.128;16.458;2023-05-07T05:25:07;18.33;;;7.75;;
73729;SDS011;62036;48.128;16.458;2023-05-07T05:27:34;10.73;;;5.82;;
73729;SDS011;62036;48.128;16.458;2023-05-07T05:30:00;11.02;;;5.55;;
73729;SDS011;62036;48.128;16.458;2023-05-07T05:32:26;12.55;;;6.57;;
73729;SDS011;62036;48.128;16.458;2023-05-07T05:34:54;13.13;;;6.63;;
73729;SDS011;62036;48.128;16.458;2023-05-07T05:37:20;14.55;;;7.50;;
73729;SDS011;62036;48.128;16.458;2023-05-07T05:39:46;13.27;;;6.88;;
73729;SDS011;62036;48.128;16.458;2023-05-07T05:42:12;12.15;;;7.05;;
73729;SDS011;62036;48.128;16.458;2023-05-07T05:44:38;14.70;;;8.27;;
73729;SDS011;62036;48.128;16.458;2023-05-07T05:47:04;11.93;;;6.88;;
73729;SDS011;62036;48.128;16.458;2023-05-07T05:49:30;12.27;;;7.70;;
73729;SDS011;62036;48.128;16.458;2023-05-07T05:51:56;15.60;;;8.38;;
73729;SDS011;62036;48.128;16.458;2023-05-07T05:54:22;11.23;;;7.30;;
73729;SDS011;62036;48.128;16.458;2023-05-07T05:56:48;12.68;;;7.45;;
73729;SDS011;62036;48.128;16.458;2023-05-07T05:59:17;14.15;;;7.05;;
73729;SDS011;62036;48.128;16.458;2023-05-07T06:01:43;11.52;;;5.90;;
73729;SDS011;62036;48.128;16.458;2023-05-07T06:04:12;15.75;;;7.75;;
73729;SDS011;62036;48.128;16.458;2023-05-07T06:06:38;11.65;;;6.95;;
73729;SDS011;62036;48.128;16.458;2023-05-07T06:09:04;16.05;;;8.45;;
73729;SDS011;62036;48.128;16.458;2023-05-07T06:11:31;14.07;;;8.07;;
73729;SDS011;62036;48.128;16.458;2023-05-07T06:13:57;14.77;;;8.45;;
73729;SDS011;62036;48.128;16.458;2023-05-07T06:16:24;14.43;;;8.55;;
73729;SDS011;62036;48.128;16.458;2023-05-07T06:18:50;11.38;;;7.80;;
73729;SDS011;62036;48.128;16.458;2023-05-07T06:21:16;17.85;;;8.70;;
73729;SDS011;62036;48.128;16.458;2023-05-07T06:23:42;13.30;;;8.00;;
73729;SDS011;62036;48.128;16.458;2023-05-07T06:26:08;13.73;;;7.30;;
73729;SDS011;62036;48.128;16.458;2023-05-07T06:28:34;14.75;;;7.93;;
73729;SDS011;62036;48.128;16.458;2023-05-07T06:31:16;12.10;;;7.15;;
73729;SDS011;62036;48.128;16.458;2023-05-07T06:33:43;13.35;;;7.43;;
73729;SDS011;62036;48.128;16.458;2023-05-07T06:36:09;12.60;;;7.05;;
73729;SDS011;62036;48.128;16.458;2023-05-07T06:38:35;10.80;;;6.63;;
73729;SDS011;62036;48.128;16.458;2023-05-07T06:41:01;11.23;;;6.93;;
73729;SDS011;62036;48.128;16.458;2023-05-07T06:43:27;12.55;;;6.93;;
73729;SDS011;62036;48.128;16.458;2023-05-07T06:45:54;13.38;;;7.65;;
73729;SDS011;62036;48.128;16.458;2023-05-07T06:48:20;13.38;;;7.63;;
73729;SDS011;62036;48.128;16.458;2023-05-07T06:50:46;11.38;;;6.80;;
73729;SDS011;62036;48.128;16.458;2023-05-07T06:53:12;13.13;;;6.93;;
73729;SDS011;62036;48.128;16.458;2023-05-07T06:55:38;12.02;;;6.72;;
73729;SDS011;62036;48.128;16.458;2023-05-07T06:58:04;13.50;;;7.18;;
73729;SDS011;62036;48.128;16.458;2023-05-07T07:00:30;11.85;;;7.55;;
73729;SDS011;62036;48.128;16.458;2023-05-07T07:02:59;10.00;;;6.53;;
73729;SDS011;62036;48.128;16.458;2023-05-07T07:05:25;9.40;;;5.15;;
73729;SDS011;62036;48.128;16.458;2023-05-07T07:07:51;10.52;;;6.13;;
73729;SDS011;62036;48.128;16.458;2023-05-07T07:10:18;13.40;;;6.50;;
73729;SDS011;62036;48.128;16.458;2023-05-07T07:12:45;14.05;;;7.32;;
73729;SDS011;62036;48.128;16.458;2023-05-07T07:15:11;13.50;;;7.00;;
73729;SDS011;62036;48.128;16.458;2023-05-07T07:17:37;12.32;;;6.53;;
73729;SDS011;62036;48.128;16.458;2023-05-07T07:20:03;12.88;;;7.43;;
73729;SDS011;62036;48.128;16.458;2023-05-07T07:22:29;10.88;;;6.57;;
73729;SDS011;62036;48.128;16.458;2023-05-07T07:24:55;13.63;;;6.85;;
73729;SDS011;62036;48.128;16.458;2023-05-07T07:27:21;11.50;;;6.80;;
73729;SDS011;62036;48.128;16.458;2023-05-07T07:29:47;12.65;;;6.45;;
73729;SDS011;62036;48.128;16.458;2023-05-07T07:32:13;10.05;;;6.80;;
73729;SDS011;62036;48.128;16.458;2023-05-07T07:34:39;12.93;;;7.07;;
73729;SDS011;62036;48.128;16.458;2023-05-07T07:37:05;10.18;;;7.25;;
73729;SDS011;62036;48.128;16.458;2023-05-07T07:39:31;10.30;;;6.03;;
73729;SDS011;62036;48.128;16.458;2023-05-07T07:41:58;10.55;;;6.47;;
73729;SDS011;62036;48.128;16.458;2023-05-07T07:44:24;11.07;;;5.50;;
73729;SDS011;62036;48.128;16.458;2023-05-07T07:46:50;10.63;;;6.63;;
73729;SDS011;62036;48.128;16.458;2023-05-07T07:49:16;11.55;;;6.90;;
73729;SDS011;62036;48.128;16.458;2023-05-07T07:51:42;12.48;;;6.88;;
73729;SDS011;62036;48.128;16.458;2023-05-07T07:54:08;11.27;;;6.15;;
73729;SDS011;62036;48.128;16.458;2023-05-07T07:56:35;11.60;;;6.22;;
73729;SDS011;62036;48.128;16.458;2023-05-07T07:59:01;10.38;;;5.72;;
73729;SDS011;62036;48.128;16.458;2023-05-07T08:01:28;9.98;;;6.53;;
73729;SDS011;62036;48.128;16.458;2023-05-07T08:03:55;11.68;;;7.60;;
73729;SDS011;62036;48.128;16.458;2023-05-07T08:06:23;9.80;;;5.97;;
73729;SDS011;62036;48.128;16.458;2023-05-07T08:08:50;9.50;;;5.05;;
73729;SDS011;62036;48.128;16.458;2023-05-07T08:11:16;9.90;;;5.18;;
73729;SDS011;62036;48.128;16.458;2023-05-07T08:13:42;11.75;;;5.13;;
73729;SDS011;62036;48.128;16.458;2023-05-07T08:16:09;11.27;;;5.35;;
73729;SDS011;62036;48.128;16.458;2023-05-07T08:18:35;8.88;;;5.03;;
73729;SDS011;62036;48.128;16.458;2023-05-07T08:21:02;10.30;;;5.88;;
73729;SDS011;62036;48.128;16.458;2023-05-07T08:23:28;9.80;;;5.63;;
73729;SDS011;62036;48.128;16.458;2023-05-07T08:25:54;8.75;;;4.97;;
73729;SDS011;62036;48.128;16.458;2023-05-07T08:28:20;8.25;;;4.80;;
73729;SDS011;62036;48.128;16.458;2023-05-07T08:30:46;7.22;;;4.63;;
73729;SDS011;62036;48.128;16.458;2023-05-07T08:33:12;9.05;;;5.05;;
73729;SDS011;62036;48.128;16.458;2023-05-07T08:35:38;10.45;;;5.18;;
73729;SDS011;62036;48.128;16.458;2023-05-07T08:38:05;8.77;;;4.82;;
73729;SDS011;62036;48.128;16.458;2023-05-07T08:40:32;7.95;;;4.05;;
73729;SDS011;62036;48.128;16.458;2023-05-07T08:43:00;6.85;;;4.35;;
73729;SDS011;62036;48.128;16.458;2023-05-07T08:45:26;8.77;;;4.60;;
73729;SDS011;62036;48.128;16.458;2023-05-07T08:47:55;6.55;;;4.60;;
73729;SDS011;62036;48.128;16.458;2023-05-07T08:50:24;7.25;;;4.18;;
73729;SDS011;62036;48.128;16.458;2023-05-07T08:52:50;8.45;;;3.95;;
73729;SDS011;62036;48.128;16.458;2023-05-07T08:55:16;11.45;;;5.35;;
73729;SDS011;62036;48.128;16.458;2023-05-07T08:57:42;9.95;;;5.45;;
73729;SDS011;62036;48.128;16.458;2023-05-07T09:00:08;8.32;;;4.72;;
73729;SDS011;62036;48.128;16.458;2023-05-07T09:02:35;7.75;;;5.05;;
73729;SDS011;62036;48.128;16.458;2023-05-07T09:05:01;8.27;;;4.65;;
73729;SDS011;62036;48.128;16.458;2023-05-07T09:07:27;9.10;;;4.90;;
73729;SDS011;62036;48.128;16.458;2023-05-07T09:09:53;10.38;;;4.72;;
73729;SDS011;62036;48.128;16.458;2023-05-07T09:12:22;8.07;;;3.85;;
73729;SDS011;62036;48.128;16.458;2023-05-07T09:14:49;7.43;;;4.15;;
73729;SDS011;62036;48.128;16.458;2023-05-07T09:17:16;5.57;;;3.85;;
73729;SDS011;62036;48.128;16.458;2023-05-07T09:19:43;7.38;;;4.28;;
73729;SDS011;62036;48.128;16.458;2023-05-07T09:22:09;5.63;;;3.65;;
73729;SDS011;62036;48.128;16.458;2023-05-07T09:24:35;9.73;;;4.55;;
73729;SDS011;62036;48.128;16.458;2023-05-07T09:27:06;8.75;;;4.72;;
73729;SDS011;62036;48.128;16.458;2023-05-07T09:29:33;9.43;;;4.50;;
73729;SDS011;62036;48.128;16.458;2023-05-07T09:32:05;9.25;;;4.32;;
73729;SDS011;62036;48.128;16.458;2023-05-07T09:34:31;8.52;;;4.50;;
73729;SDS011;62036;48.128;16.458;2023-05-07T09:37:04;5.90;;;3.92;;
73729;SDS011;62036;48.128;16.458;2023-05-07T09:39:46;6.22;;;4.03;;
73729;SDS011;62036;48.128;16.458;2023-05-07T09:42:13;10.68;;;6.28;;
73729;SDS011;62036;48.128;16.458;2023-05-07T09:44:45;9.75;;;6.97;;
73729;SDS011;62036;48.128;16.458;2023-05-07T09:47:11;10.43;;;6.20;;
73729;SDS011;62036;48.128;16.458;2023-05-07T09:49:39;16.38;;;8.07;;
73729;SDS011;62036;48.128;16.458;2023-05-07T09:52:07;9.45;;;5.18;;
73729;SDS011;62036;48.128;16.458;2023-05-07T09:54:36;11.32;;;5.35;;
73729;SDS011;62036;48.128;16.458;2023-05-07T09:57:07;9.70;;;5.13;;
73729;SDS011;62036;48.128;16.458;2023-05-07T09:59:34;5.88;;;3.65;;
73729;SDS011;62036;48.128;16.458;2023-05-07T10:02:02;9.20;;;4.72;;
73729;SDS011;62036;48.128;16.458;2023-05-07T10:04:28;7.18;;;4.20;;
73729;SDS011;62036;48.128;16.458;2023-05-07T10:06:55;7.43;;;4.32;;
73729;SDS011;62036;48.128;16.458;2023-05-07T10:09:21;7.38;;;4.55;;
73729;SDS011;62036;48.128;16.458;2023-05-07T10:11:48;7.00;;;4.00;;
73729;SDS011;62036;48.128;16.458;2023-05-07T10:14:15;9.15;;;5.15;;
73729;SDS011;62036;48.128;16.458;2023-05-07T10:16:41;7.28;;;4.40;;
73729;SDS011;62036;48.128;16.458;2023-05-07T10:19:08;8.90;;;4.65;;
73729;SDS011;62036;48.128;16.458;2023-05-07T10:21:37;9.43;;;4.22;;
73729;SDS011;62036;48.128;16.458;2023-05-07T10:24:04;9.02;;;4.50;;
73729;SDS011;62036;48.128;16.458;2023-05-07T10:26:31;7.07;;;4.18;;
73729;SDS011;62036;48.128;16.458;2023-05-07T10:29:05;10.85;;;5.32;;
73729;SDS011;62036;48.128;16.458;2023-05-07T10:31:43;9.20;;;4.32;;
73729;SDS011;62036;48.128;16.458;2023-05-07T10:34:12;9.13;;;4.43;;
73729;SDS011;62036;48.128;16.458;2023-05-07T10:36:40;8.43;;;4.40;;
73729;SDS011;62036;48.128;16.458;2023-05-07T10:39:07;7.95;;;4.63;;
73729;SDS011;62036;48.128;16.458;2023-05-07T10:41:33;8.07;;;3.83;;
73729;SDS011;62036;48.128;16.458;2023-05-07T10:43:59;8.32;;;4.20;;
73729;SDS011;62036;48.128;16.458;2023-05-07T10:46:27;8.07;;;4.80;;
73729;SDS011;62036;48.128;16.458;2023-05-07T10:51:30;9.27;;;4.93;;
73729;SDS011;62036;48.128;16.458;2023-05-07T11:02:00;5.95;;;3.80;;
73729;SDS011;62036;48.128;16.458;2023-05-07T11:04:31;6.85;;;3.65;;
73729;SDS011;62036;48.128;16.458;2023-05-07T11:12:13;6.75;;;4.57;;
73729;SDS011;62036;48.128;16.458;2023-05-07T11:14:43;9.18;;;4.82;;
73729;SDS011;62036;48.128;16.458;2023-05-07T11:17:09;7.07;;;4.05;;
73729;SDS011;62036;48.128;16.458;2023-05-07T11:19:51;8.85;;;4.03;;
73729;SDS011;62036;48.128;16.458;2023-05-07T11:25:00;5.35;;;3.17;;
73729;SDS011;62036;48.128;16.458;2023-05-07T11:27:27;6.00;;;3.53;;
73729;SDS011;62036;48.128;16.458;2023-05-07T11:29:53;5.55;;;3.53;;
73729;SDS011;62036;48.128;16.458;2023-05-07T11:32:22;5.70;;;3.75;;
73729;SDS011;62036;48.128;16.458;2023-05-07T11:34:52;5.75;;;3.40;;
73729;SDS011;62036;48.128;16.458;2023-05-07T11:37:18;5.18;;;3.15;;
73729;SDS011;62036;48.128;16.458;2023-05-07T11:39:45;5.72;;;3.38;;
73729;SDS011;62036;48.128;16.458;2023-05-07T11:42:31;4.38;;;2.95;;
73729;SDS011;62036;48.128;16.458;2023-05-07T11:44:57;4.57;;;2.92;;
73729;SDS011;62036;48.128;16.458;2023-05-07T11:47:24;8.07;;;4.80;;
73729;SDS011;62036;48.128;16.458;2023-05-07T11:49:53;7.28;;;4.60;;
73729;SDS011;62036;48.128;16.458;2023-05-07T11:52:25;4.78;;;3.15;;
73729;SDS011;62036;48.128;16.458;2023-05-07T11:54:55;6.07;;;3.63;;
73729;SDS011;62036;48.128;16.458;2023-05-07T11:57:22;5.57;;;3.53;;
73729;SDS011;62036;48.128;16.458;2023-05-07T11:59:48;6.22;;;2.90;;
73729;SDS011;62036;48.128;16.458;2023-05-07T12:02:18;4.50;;;2.92;;
73729;SDS011;62036;48.128;16.458;2023-05-07T12:04:44;7.50;;;3.72;;
73729;SDS011;62036;48.128;16.458;2023-05-07T12:07:13;4.18;;;2.53;;
73729;SDS011;62036;48.128;16.458;2023-05-07T12:09:43;3.85;;;2.70;;
73729;SDS011;62036;48.128;16.458;2023-05-07T12:12:09;6.60;;;3.65;;
73729;SDS011;62036;48.128;16.458;2023-05-07T12:14:41;4.90;;;2.92;;
73729;SDS011;62036;48.128;16.458;2023-05-07T12:17:10;6.40;;;3.70;;
73729;SDS011;62036;48.128;16.458;2023-05-07T12:19:36;5.38;;;3.67;;
73729;SDS011;62036;48.128;16.458;2023-05-07T12:22:03;5.28;;;3.03;;
73729;SDS011;62036;48.128;16.458;2023-05-07T12:27:15;5.43;;;3.25;;
73729;SDS011;62036;48.128;16.458;2023-05-07T12:29:47;3.83;;;2.80;;
73729;SDS011;62036;48.128;16.458;2023-05-07T12:32:14;5.82;;;3.50;;
73729;SDS011;62036;48.128;16.458;2023-05-07T12:34:41;5.10;;;2.90;;
73729;SDS011;62036;48.128;16.458;2023-05-07T12:37:07;5.00;;;3.20;;
73729;SDS011;62036;48.128;16.458;2023-05-07T12:39:33;4.22;;;2.60;;
73729;SDS011;62036;48.128;16.458;2023-05-07T12:41:59;4.65;;;2.55;;
73729;SDS011;62036;48.128;16.458;2023-05-07T12:44:28;4.28;;;3.17;;
73729;SDS011;62036;48.128;16.458;2023-05-07T12:46:55;4.50;;;2.75;;
73729;SDS011;62036;48.128;16.458;2023-05-07T12:49:22;5.47;;;3.00;;
73729;SDS011;62036;48.128;16.458;2023-05-07T12:51:50;4.82;;;2.95;;
73729;SDS011;62036;48.128;16.458;2023-05-07T12:54:49;3.95;;;2.88;;
73729;SDS011;62036;48.128;16.458;2023-05-07T12:57:09;4.45;;;2.65;;
73729;SDS011;62036;48.128;16.458;2023-05-07T12:59:38;3.30;;;2.60;;
73729;SDS011;62036;48.128;16.458;2023-05-07T13:02:05;4.25;;;2.50;;
73729;SDS011;62036;48.128;16.458;2023-05-07T13:04:31;4.55;;;2.60;;
73729;SDS011;62036;48.128;16.458;2023-05-07T13:06:57;5.15;;;3.08;;
73729;SDS011;62036;48.128;16.458;2023-05-07T13:09:23;3.70;;;2.78;;
73729;SDS011;62036;48.128;16.458;2023-05-07T13:14:53;5.65;;;2.50;;
73729;SDS011;62036;48.128;16.458;2023-05-07T13:17:19;5.28;;;2.40;;
73729;SDS011;62036;48.128;16.458;2023-05-07T13:19:45;3.92;;;2.67;;
73729;SDS011;62036;48.128;16.458;2023-05-07T13:22:15;3.13;;;2.30;;
73729;SDS011;62036;48.128;16.458;2023-05-07T13:24:41;3.30;;;2.22;;
73729;SDS011;62036;48.128;16.458;2023-05-07T13:27:08;4.10;;;2.13;;
73729;SDS011;62036;48.128;16.458;2023-05-07T13:29:34;3.45;;;2.47;;
73729;SDS011;62036;48.128;16.458;2023-05-07T13:32:00;3.38;;;2.25;;
73729;SDS011;62036;48.128;16.458;2023-05-07T13:34:27;3.17;;;1.90;;
73729;SDS011;62036;48.128;16.458;2023-05-07T13:36:53;2.90;;;1.95;;
73729;SDS011;62036;48.128;16.458;2023-05-07T13:39:23;4.13;;;2.33;;
73729;SDS011;62036;48.128;16.458;2023-05-07T13:42:01;4.40;;;2.03;;
73729;SDS011;62036;48.128;16.458;2023-05-07T13:44:27;3.42;;;2.17;;
73729;SDS011;62036;48.128;16.458;2023-05-07T13:46:53;3.97;;;2.03;;
73729;SDS011;62036;48.128;16.458;2023-05-07T13:49:22;3.10;;;2.03;;
73729;SDS011;62036;48.128;16.458;2023-05-07T13:51:49;3.17;;;2.33;;
73729;SDS011;62036;48.128;16.458;2023-05-07T13:54:15;3.58;;;2.42;;
73729;SDS011;62036;48.128;16.458;2023-05-07T13:56:43;3.08;;;1.85;;
73729;SDS011;62036;48.128;16.458;2023-05-07T13:59:12;4.28;;;2.33;;
73729;SDS011;62036;48.128;16.458;2023-05-07T14:01:39;3.80;;;2.35;;
73729;SDS011;62036;48.128;16.458;2023-05-07T14:04:05;3.28;;;2.30;;
73729;SDS011;62036;48.128;16.458;2023-05-07T14:06:31;2.75;;;1.63;;
73729;SDS011;62036;48.128;16.458;2023-05-07T14:08:57;2.90;;;2.13;;
73729;SDS011;62036;48.128;16.458;2023-05-07T14:11:23;4.70;;;2.30;;
73729;SDS011;62036;48.128;16.458;2023-05-07T14:13:49;2.70;;;1.98;;
73729;SDS011;62036;48.128;16.458;2023-05-07T14:16:15;2.97;;;2.15;;
73729;SDS011;62036;48.128;16.458;2023-05-07T14:18:41;3.40;;;2.13;;
73729;SDS011;62036;48.128;16.458;2023-05-07T14:21:07;3.22;;;2.08;;
73729;SDS011;62036;48.128;16.458;2023-05-07T14:23:34;2.55;;;2.17;;
73729;SDS011;62036;48.128;16.458;2023-05-07T14:26:01;3.10;;;2.22;;
73729;SDS011;62036;48.128;16.458;2023-05-07T14:28:27;2.72;;;1.80;;
73729;SDS011;62036;48.128;16.458;2023-05-07T14:30:53;3.63;;;1.85;;
73729;SDS011;62036;48.128;16.458;2023-05-07T14:33:19;3.10;;;1.88;;
73729;SDS011;62036;48.128;16.458;2023-05-07T14:35:45;2.65;;;1.90;;
73729;SDS011;62036;48.128;16.458;2023-05-07T14:38:13;1.48;;;1.38;;
73729;SDS011;62036;48.128;16.458;2023-05-07T14:40:40;2.00;;;1.30;;
73729;SDS011;62036;48.128;16.458;2023-05-07T14:43:06;1.52;;;1.20;;
73729;SDS011;62036;48.128;16.458;2023-05-07T14:45:32;2.63;;;1.50;;
73729;SDS011;62036;48.128;16.458;2023-05-07T14:47:58;2.85;;;1.58;;
73729;SDS011;62036;48.128;16.458;2023-05-07T14:50:26;2.28;;;1.50;;
73729;SDS011;62036;48.128;16.458;2023-05-07T14:52:52;2.33;;;1.23;;